Terminal Aerodrome Forecast
Issued by NWS

Home | Current Version | Previous Version | Text Only | Print | Product List | Glossary On
Versions: 1 2 3 4 5 6 7 8 9 10 11 12 13
000
FTUS41 KLWX 271132
TAFMTN
TAF
KMTN 271132Z 2712/2812 04005KT P6SM SKC
     FM271900 10005KT P6SM SKC
     FM280600 VRB04KT P6SM BKN015=

USA.gov is the U.S. government's official web portal to all federal, state and local government web resources and services.